sensor_id;sensor_type;location;lat;lon;timestamp;P1;durP1;ratioP1;P2;durP2;ratioP2
55316;SDS011;41178;48.956;8.130;2023-05-07T00:03:40;3.50;;;2.90;;
55316;SDS011;41178;48.956;8.130;2023-05-07T00:08:42;7.43;;;3.23;;
55316;SDS011;41178;48.956;8.130;2023-05-07T00:13:44;4.30;;;3.17;;
55316;SDS011;41178;48.956;8.130;2023-05-07T00:18:45;3.43;;;3.13;;
55316;SDS011;41178;48.956;8.130;2023-05-07T00:23:47;8.10;;;3.20;;
55316;SDS011;41178;48.956;8.130;2023-05-07T00:28:49;4.50;;;3.00;;
55316;SDS011;41178;48.956;8.130;2023-05-07T00:33:50;3.50;;;3.20;;
55316;SDS011;41178;48.956;8.130;2023-05-07T00:38:53;5.17;;;3.23;;
55316;SDS011;41178;48.956;8.130;2023-05-07T00:43:56;4.13;;;2.70;;
55316;SDS011;41178;48.956;8.130;2023-05-07T00:48:58;3.47;;;3.17;;
55316;SDS011;41178;48.956;8.130;2023-05-07T00:54:02;4.47;;;3.20;;
55316;SDS011;41178;48.956;8.130;2023-05-07T00:59:04;4.80;;;3.63;;
55316;SDS011;41178;48.956;8.130;2023-05-07T01:04:07;3.67;;;3.10;;
55316;SDS011;41178;48.956;8.130;2023-05-07T01:09:09;4.33;;;3.47;;
55316;SDS011;41178;48.956;8.130;2023-05-07T01:14:11;4.10;;;3.70;;
55316;SDS011;41178;48.956;8.130;2023-05-07T01:19:12;4.77;;;3.40;;
55316;SDS011;41178;48.956;8.130;2023-05-07T01:24:18;4.73;;;3.70;;
55316;SDS011;41178;48.956;8.130;2023-05-07T01:29:20;6.10;;;3.70;;
55316;SDS011;41178;48.956;8.130;2023-05-07T01:34:21;5.33;;;3.80;;
55316;SDS011;41178;48.956;8.130;2023-05-07T01:39:24;3.87;;;3.20;;
55316;SDS011;41178;48.956;8.130;2023-05-07T01:44:28;3.60;;;3.30;;
55316;SDS011;41178;48.956;8.130;2023-05-07T01:49:30;5.27;;;3.70;;
55316;SDS011;41178;48.956;8.130;2023-05-07T01:54:32;4.47;;;3.50;;
55316;SDS011;41178;48.956;8.130;2023-05-07T01:59:33;4.97;;;3.67;;
55316;SDS011;41178;48.956;8.130;2023-05-07T02:04:35;5.23;;;3.27;;
55316;SDS011;41178;48.956;8.130;2023-05-07T02:09:37;4.63;;;3.60;;
55316;SDS011;41178;48.956;8.130;2023-05-07T02:14:39;4.20;;;3.47;;
55316;SDS011;41178;48.956;8.130;2023-05-07T02:19:41;4.73;;;3.63;;
55316;SDS011;41178;48.956;8.130;2023-05-07T02:24:43;3.63;;;3.23;;
55316;SDS011;41178;48.956;8.130;2023-05-07T02:29:45;6.20;;;3.77;;
55316;SDS011;41178;48.956;8.130;2023-05-07T02:34:49;3.80;;;3.40;;
55316;SDS011;41178;48.956;8.130;2023-05-07T02:39:52;3.70;;;3.37;;
55316;SDS011;41178;48.956;8.130;2023-05-07T02:44:53;5.47;;;3.53;;
55316;SDS011;41178;48.956;8.130;2023-05-07T02:49:55;4.73;;;3.50;;
55316;SDS011;41178;48.956;8.130;2023-05-07T02:54:57;3.87;;;3.47;;
55316;SDS011;41178;48.956;8.130;2023-05-07T02:59:58;3.80;;;3.20;;
55316;SDS011;41178;48.956;8.130;2023-05-07T03:05:00;3.50;;;3.20;;
55316;SDS011;41178;48.956;8.130;2023-05-07T03:10:03;5.37;;;3.50;;
55316;SDS011;41178;48.956;8.130;2023-05-07T03:15:05;4.73;;;3.33;;
55316;SDS011;41178;48.956;8.130;2023-05-07T03:20:08;4.57;;;3.40;;
55316;SDS011;41178;48.956;8.130;2023-05-07T03:25:11;3.77;;;3.43;;
55316;SDS011;41178;48.956;8.130;2023-05-07T03:30:14;4.63;;;3.47;;
55316;SDS011;41178;48.956;8.130;2023-05-07T03:35:15;4.70;;;3.77;;
55316;SDS011;41178;48.956;8.130;2023-05-07T03:40:17;3.50;;;2.90;;
55316;SDS011;41178;48.956;8.130;2023-05-07T03:45:19;4.37;;;3.83;;
55316;SDS011;41178;48.956;8.130;2023-05-07T03:50:21;5.93;;;3.30;;
55316;SDS011;41178;48.956;8.130;2023-05-07T03:55:22;4.30;;;3.53;;
55316;SDS011;41178;48.956;8.130;2023-05-07T04:00:24;4.60;;;4.07;;
55316;SDS011;41178;48.956;8.130;2023-05-07T04:05:26;4.93;;;4.30;;
55316;SDS011;41178;48.956;8.130;2023-05-07T04:10:29;6.13;;;3.87;;
55316;SDS011;41178;48.956;8.130;2023-05-07T04:15:31;5.67;;;4.07;;
55316;SDS011;41178;48.956;8.130;2023-05-07T04:20:33;4.97;;;4.40;;
55316;SDS011;41178;48.956;8.130;2023-05-07T04:25:37;4.57;;;3.43;;
55316;SDS011;41178;48.956;8.130;2023-05-07T04:30:39;5.30;;;3.90;;
55316;SDS011;41178;48.956;8.130;2023-05-07T04:35:42;4.97;;;4.23;;
55316;SDS011;41178;48.956;8.130;2023-05-07T04:40:44;4.73;;;4.23;;
55316;SDS011;41178;48.956;8.130;2023-05-07T04:45:46;5.87;;;4.53;;
55316;SDS011;41178;48.956;8.130;2023-05-07T04:50:48;4.73;;;4.23;;
55316;SDS011;41178;48.956;8.130;2023-05-07T04:55:57;4.80;;;3.87;;
55316;SDS011;41178;48.956;8.130;2023-05-07T05:00:59;4.83;;;3.77;;
55316;SDS011;41178;48.956;8.130;2023-05-07T05:06:01;4.50;;;4.10;;
55316;SDS011;41178;48.956;8.130;2023-05-07T05:11:03;5.37;;;3.97;;
55316;SDS011;41178;48.956;8.130;2023-05-07T05:16:05;6.43;;;4.00;;
55316;SDS011;41178;48.956;8.130;2023-05-07T05:21:07;4.17;;;3.77;;
55316;SDS011;41178;48.956;8.130;2023-05-07T05:26:09;3.80;;;3.50;;
55316;SDS011;41178;48.956;8.130;2023-05-07T05:31:11;3.83;;;3.43;;
55316;SDS011;41178;48.956;8.130;2023-05-07T05:36:13;4.23;;;3.73;;
55316;SDS011;41178;48.956;8.130;2023-05-07T05:41:14;5.43;;;3.60;;
55316;SDS011;41178;48.956;8.130;2023-05-07T05:46:16;4.07;;;3.60;;
55316;SDS011;41178;48.956;8.130;2023-05-07T05:51:18;5.63;;;3.37;;
55316;SDS011;41178;48.956;8.130;2023-05-07T05:56:22;3.57;;;3.23;;
55316;SDS011;41178;48.956;8.130;2023-05-07T06:01:23;4.70;;;3.90;;
55316;SDS011;41178;48.956;8.130;2023-05-07T06:06:25;3.93;;;3.43;;
55316;SDS011;41178;48.956;8.130;2023-05-07T06:11:27;4.27;;;3.20;;
55316;SDS011;41178;48.956;8.130;2023-05-07T06:16:29;4.67;;;3.40;;
55316;SDS011;41178;48.956;8.130;2023-05-07T06:21:31;4.47;;;4.07;;
55316;SDS011;41178;48.956;8.130;2023-05-07T06:26:33;4.43;;;3.30;;
55316;SDS011;41178;48.956;8.130;2023-05-07T06:31:34;3.40;;;3.10;;
55316;SDS011;41178;48.956;8.130;2023-05-07T06:36:36;4.60;;;3.20;;
55316;SDS011;41178;48.956;8.130;2023-05-07T06:41:38;3.67;;;3.33;;
55316;SDS011;41178;48.956;8.130;2023-05-07T06:46:40;4.80;;;3.10;;
55316;SDS011;41178;48.956;8.130;2023-05-07T06:51:42;3.77;;;3.33;;
55316;SDS011;41178;48.956;8.130;2023-05-07T06:56:44;4.30;;;3.70;;
55316;SDS011;41178;48.956;8.130;2023-05-07T07:01:46;4.43;;;3.40;;
55316;SDS011;41178;48.956;8.130;2023-05-07T07:06:47;4.23;;;3.10;;
55316;SDS011;41178;48.956;8.130;2023-05-07T07:11:49;3.77;;;3.13;;
55316;SDS011;41178;48.956;8.130;2023-05-07T07:16:51;3.57;;;3.27;;
55316;SDS011;41178;48.956;8.130;2023-05-07T07:21:53;4.93;;;3.83;;
55316;SDS011;41178;48.956;8.130;2023-05-07T07:26:55;4.87;;;3.60;;
55316;SDS011;41178;48.956;8.130;2023-05-07T07:31:56;6.00;;;4.37;;
55316;SDS011;41178;48.956;8.130;2023-05-07T07:36:58;4.93;;;3.70;;
55316;SDS011;41178;48.956;8.130;2023-05-07T07:42:00;4.97;;;3.83;;
55316;SDS011;41178;48.956;8.130;2023-05-07T07:47:02;5.37;;;3.80;;
55316;SDS011;41178;48.956;8.130;2023-05-07T07:52:04;3.77;;;3.43;;
55316;SDS011;41178;48.956;8.130;2023-05-07T07:57:05;4.03;;;3.63;;
55316;SDS011;41178;48.956;8.130;2023-05-07T08:02:07;3.93;;;3.63;;
55316;SDS011;41178;48.956;8.130;2023-05-07T08:07:09;4.80;;;3.90;;
55316;SDS011;41178;48.956;8.130;2023-05-07T08:12:11;7.30;;;6.57;;
55316;SDS011;41178;48.956;8.130;2023-05-07T08:17:13;5.40;;;4.37;;
55316;SDS011;41178;48.956;8.130;2023-05-07T08:22:17;4.53;;;3.97;;
55316;SDS011;41178;48.956;8.130;2023-05-07T08:27:19;8.27;;;4.23;;
55316;SDS011;41178;48.956;8.130;2023-05-07T08:32:21;4.17;;;3.77;;
55316;SDS011;41178;48.956;8.130;2023-05-07T08:37:23;5.20;;;4.00;;
55316;SDS011;41178;48.956;8.130;2023-05-07T08:42:25;6.23;;;3.70;;
55316;SDS011;41178;48.956;8.130;2023-05-07T08:47:31;4.77;;;3.50;;
55316;SDS011;41178;48.956;8.130;2023-05-07T08:52:44;4.40;;;3.60;;
55316;SDS011;41178;48.956;8.130;2023-05-07T08:57:46;4.30;;;3.85;;
55316;SDS011;41178;48.956;8.130;2023-05-07T09:02:49;4.27;;;3.87;;
55316;SDS011;41178;48.956;8.130;2023-05-07T09:07:51;5.77;;;4.23;;
55316;SDS011;41178;48.956;8.130;2023-05-07T09:12:55;4.67;;;4.20;;
55316;SDS011;41178;48.956;8.130;2023-05-07T09:18:00;6.47;;;4.10;;
55316;SDS011;41178;48.956;8.130;2023-05-07T09:23:05;6.27;;;4.60;;
55316;SDS011;41178;48.956;8.130;2023-05-07T09:28:08;4.35;;;3.95;;
55316;SDS011;41178;48.956;8.130;2023-05-07T09:33:11;6.03;;;4.22;;
55316;SDS011;41178;48.956;8.130;2023-05-07T09:38:13;4.93;;;3.85;;
55316;SDS011;41178;48.956;8.130;2023-05-07T09:43:15;6.82;;;4.30;;
55316;SDS011;41178;48.956;8.130;2023-05-07T09:48:16;4.28;;;3.88;;
55316;SDS011;41178;48.956;8.130;2023-05-07T09:53:20;4.57;;;4.03;;
55316;SDS011;41178;48.956;8.130;2023-05-07T09:58:23;5.57;;;4.18;;
55316;SDS011;41178;48.956;8.130;2023-05-07T10:03:26;4.63;;;3.72;;
55316;SDS011;41178;48.956;8.130;2023-05-07T10:08:30;4.75;;;4.35;;
55316;SDS011;41178;48.956;8.130;2023-05-07T10:13:32;4.82;;;4.32;;
55316;SDS011;41178;48.956;8.130;2023-05-07T10:18:37;5.22;;;4.68;;
55316;SDS011;41178;48.956;8.130;2023-05-07T10:23:41;6.47;;;4.13;;
55316;SDS011;41178;48.956;8.130;2023-05-07T10:28:49;4.45;;;3.90;;
55316;SDS011;41178;48.956;8.130;2023-05-07T10:33:55;6.22;;;4.20;;
55316;SDS011;41178;48.956;8.130;2023-05-07T10:38:59;5.07;;;4.57;;
55316;SDS011;41178;48.956;8.130;2023-05-07T10:44:01;4.70;;;4.05;;
55316;SDS011;41178;48.956;8.130;2023-05-07T11:06:28;5.43;;;3.90;;
55316;SDS011;41178;48.956;8.130;2023-05-07T11:16:52;7.85;;;4.30;;
55316;SDS011;41178;48.956;8.130;2023-05-07T11:22:04;4.20;;;3.80;;
55316;SDS011;41178;48.956;8.130;2023-05-07T11:27:05;5.13;;;3.72;;
55316;SDS011;41178;48.956;8.130;2023-05-07T11:32:07;5.75;;;4.30;;
55316;SDS011;41178;48.956;8.130;2023-05-07T11:37:09;5.45;;;4.45;;
55316;SDS011;41178;48.956;8.130;2023-05-07T11:47:41;6.88;;;5.50;;
55316;SDS011;41178;48.956;8.130;2023-05-07T11:52:49;7.22;;;6.50;;
55316;SDS011;41178;48.956;8.130;2023-05-07T11:57:53;9.07;;;6.45;;
55316;SDS011;41178;48.956;8.130;2023-05-07T12:02:54;6.70;;;6.10;;
55316;SDS011;41178;48.956;8.130;2023-05-07T12:07:56;7.75;;;6.10;;
55316;SDS011;41178;48.956;8.130;2023-05-07T12:12:59;6.40;;;5.80;;
55316;SDS011;41178;48.956;8.130;2023-05-07T12:18:00;11.63;;;6.00;;
55316;SDS011;41178;48.956;8.130;2023-05-07T12:23:02;6.88;;;5.40;;
55316;SDS011;41178;48.956;8.130;2023-05-07T12:28:05;6.40;;;5.78;;
55316;SDS011;41178;48.956;8.130;2023-05-07T12:33:07;6.28;;;5.68;;
55316;SDS011;41178;48.956;8.130;2023-05-07T12:38:10;5.90;;;4.60;;
55316;SDS011;41178;48.956;8.130;2023-05-07T12:48:22;5.05;;;4.25;;
55316;SDS011;41178;48.956;8.130;2023-05-07T12:53:25;5.15;;;4.28;;
55316;SDS011;41178;48.956;8.130;2023-05-07T12:58:29;5.70;;;4.60;;
55316;SDS011;41178;48.956;8.130;2023-05-07T13:03:32;4.60;;;4.00;;
55316;SDS011;41178;48.956;8.130;2023-05-07T13:08:36;4.05;;;3.35;;
55316;SDS011;41178;48.956;8.130;2023-05-07T13:13:41;4.20;;;3.80;;
55316;SDS011;41178;48.956;8.130;2023-05-07T13:18:43;4.20;;;3.75;;
55316;SDS011;41178;48.956;8.130;2023-05-07T13:23:47;3.53;;;2.78;;
55316;SDS011;41178;48.956;8.130;2023-05-07T13:28:48;3.85;;;3.30;;
55316;SDS011;41178;48.956;8.130;2023-05-07T13:33:50;4.43;;;2.58;;
55316;SDS011;41178;48.956;8.130;2023-05-07T13:38:52;6.35;;;3.90;;
55316;SDS011;41178;48.956;8.130;2023-05-07T13:43:53;6.63;;;4.78;;
55316;SDS011;41178;48.956;8.130;2023-05-07T13:48:55;6.57;;;4.47;;
55316;SDS011;41178;48.956;8.130;2023-05-07T13:53:57;6.35;;;4.97;;
55316;SDS011;41178;48.956;8.130;2023-05-07T13:58:59;5.35;;;4.43;;
55316;SDS011;41178;48.956;8.130;2023-05-07T14:04:01;4.40;;;3.53;;
55316;SDS011;41178;48.956;8.130;2023-05-07T14:09:03;3.80;;;2.42;;
55316;SDS011;41178;48.956;8.130;2023-05-07T14:14:05;4.45;;;2.50;;
55316;SDS011;41178;48.956;8.130;2023-05-07T14:19:07;2.85;;;2.50;;
55316;SDS011;41178;48.956;8.130;2023-05-07T14:24:08;5.20;;;2.50;;
55316;SDS011;41178;48.956;8.130;2023-05-07T14:29:10;3.60;;;2.60;;
55316;SDS011;41178;48.956;8.130;2023-05-07T14:34:12;4.05;;;2.97;;
55316;SDS011;41178;48.956;8.130;2023-05-07T14:39:14;4.53;;;3.15;;
55316;SDS011;41178;48.956;8.130;2023-05-07T14:44:16;6.57;;;3.33;;
55316;SDS011;41178;48.956;8.130;2023-05-07T14:49:17;6.05;;;2.88;;
55316;SDS011;41178;48.956;8.130;2023-05-07T14:54:19;3.38;;;2.65;;
55316;SDS011;41178;48.956;8.130;2023-05-07T14:59:21;3.67;;;2.70;;
55316;SDS011;41178;48.956;8.130;2023-05-07T15:04:23;4.47;;;2.20;;
55316;SDS011;41178;48.956;8.130;2023-05-07T15:09:26;3.28;;;2.55;;
55316;SDS011;41178;48.956;8.130;2023-05-07T15:14:27;4.57;;;2.80;;
55316;SDS011;41178;48.956;8.130;2023-05-07T15:19:29;3.30;;;2.50;;
55316;SDS011;41178;48.956;8.130;2023-05-07T15:24:31;2.65;;;2.45;;
55316;SDS011;41178;48.956;8.130;2023-05-07T15:29:33;2.78;;;2.35;;
55316;SDS011;41178;48.956;8.130;2023-05-07T15:34:34;5.32;;;2.97;;
55316;SDS011;41178;48.956;8.130;2023-05-07T15:39:36;5.85;;;3.38;;
55316;SDS011;41178;48.956;8.130;2023-05-07T15:44:38;4.13;;;3.10;;
55316;SDS011;41178;48.956;8.130;2023-05-07T15:49:40;3.72;;;2.95;;
55316;SDS011;41178;48.956;8.130;2023-05-07T15:54:42;3.25;;;2.83;;
55316;SDS011;41178;48.956;8.130;2023-05-07T15:59:44;3.35;;;2.65;;
55316;SDS011;41178;48.956;8.130;2023-05-07T16:04:46;3.13;;;2.90;;
55316;SDS011;41178;48.956;8.130;2023-05-07T16:09:47;4.15;;;3.00;;
55316;SDS011;41178;48.956;8.130;2023-05-07T16:14:49;4.15;;;2.70;;
55316;SDS011;41178;48.956;8.130;2023-05-07T16:19:52;3.83;;;2.80;;
55316;SDS011;41178;48.956;8.130;2023-05-07T16:24:53;3.95;;;2.88;;
55316;SDS011;41178;48.956;8.130;2023-05-07T16:29:55;4.03;;;3.28;;
55316;SDS011;41178;48.956;8.130;2023-05-07T16:34:57;3.58;;;2.92;;
55316;SDS011;41178;48.956;8.130;2023-05-07T16:40:02;3.35;;;3.05;;
55316;SDS011;41178;48.956;8.130;2023-05-07T16:45:07;4.85;;;2.72;;
55316;SDS011;41178;48.956;8.130;2023-05-07T16:50:10;3.23;;;2.10;;
55316;SDS011;41178;48.956;8.130;2023-05-07T16:55:11;2.70;;;2.23;;
55316;SDS011;41178;48.956;8.130;2023-05-07T17:00:13;2.70;;;2.50;;
55316;SDS011;41178;48.956;8.130;2023-05-07T17:05:15;3.47;;;2.43;;
55316;SDS011;41178;48.956;8.130;2023-05-07T17:10:17;5.33;;;2.90;;
55316;SDS011;41178;48.956;8.130;2023-05-07T17:15:20;4.63;;;3.20;;
55316;SDS011;41178;48.956;8.130;2023-05-07T17:20:22;4.70;;;3.30;;
55316;SDS011;41178;48.956;8.130;2023-05-07T17:25:23;3.60;;;3.30;;
55316;SDS011;41178;48.956;8.130;2023-05-07T17:30:25;4.40;;;3.30;;
55316;SDS011;41178;48.956;8.130;2023-05-07T17:35:27;7.33;;;3.90;;
55316;SDS011;41178;48.956;8.130;2023-05-07T17:40:28;5.27;;;3.40;;
55316;SDS011;41178;48.956;8.130;2023-05-07T17:45:31;6.80;;;3.53;;
55316;SDS011;41178;48.956;8.130;2023-05-07T17:50:33;9.83;;;3.63;;
55316;SDS011;41178;48.956;8.130;2023-05-07T17:55:34;4.00;;;3.30;;
55316;SDS011;41178;48.956;8.130;2023-05-07T18:00:40;4.87;;;3.37;;
55316;SDS011;41178;48.956;8.130;2023-05-07T18:05:42;3.87;;;3.20;;
55316;SDS011;41178;48.956;8.130;2023-05-07T18:10:43;4.67;;;3.40;;
55316;SDS011;41178;48.956;8.130;2023-05-07T18:15:45;6.27;;;3.93;;
55316;SDS011;41178;48.956;8.130;2023-05-07T18:20:47;7.20;;;3.50;;
55316;SDS011;41178;48.956;8.130;2023-05-07T18:25:52;3.10;;;2.80;;
55316;SDS011;41178;48.956;8.130;2023-05-07T18:30:54;4.20;;;3.37;;
55316;SDS011;41178;48.956;8.130;2023-05-07T18:35:55;4.80;;;4.10;;
55316;SDS011;41178;48.956;8.130;2023-05-07T18:41:03;4.80;;;4.07;;
55316;SDS011;41178;48.956;8.130;2023-05-07T18:46:05;4.27;;;3.30;;
55316;SDS011;41178;48.956;8.130;2023-05-07T18:51:07;3.13;;;2.70;;
55316;SDS011;41178;48.956;8.130;2023-05-07T18:56:12;3.47;;;2.80;;
55316;SDS011;41178;48.956;8.130;2023-05-07T19:01:14;3.27;;;2.93;;
55316;SDS011;41178;48.956;8.130;2023-05-07T19:06:16;3.43;;;3.13;;
55316;SDS011;41178;48.956;8.130;2023-05-07T19:11:18;3.93;;;3.10;;
55316;SDS011;41178;48.956;8.130;2023-05-07T19:16:19;3.73;;;2.83;;
55316;SDS011;41178;48.956;8.130;2023-05-07T19:21:21;3.07;;;2.80;;
55316;SDS011;41178;48.956;8.130;2023-05-07T19:26:23;2.63;;;2.43;;
55316;SDS011;41178;48.956;8.130;2023-05-07T19:31:25;2.93;;;2.43;;
55316;SDS011;41178;48.956;8.130;2023-05-07T19:36:27;3.03;;;2.60;;
55316;SDS011;41178;48.956;8.130;2023-05-07T19:41:29;4.03;;;2.60;;
55316;SDS011;41178;48.956;8.130;2023-05-07T19:46:31;3.00;;;2.60;;
55316;SDS011;41178;48.956;8.130;2023-05-07T19:51:33;5.13;;;3.63;;
55316;SDS011;41178;48.956;8.130;2023-05-07T19:56:34;3.83;;;2.80;;
55316;SDS011;41178;48.956;8.130;2023-05-07T20:01:36;2.97;;;2.60;;
55316;SDS011;41178;48.956;8.130;2023-05-07T20:06:39;3.30;;;3.00;;
55316;SDS011;41178;48.956;8.130;2023-05-07T20:11:41;4.10;;;3.10;;
55316;SDS011;41178;48.956;8.130;2023-05-07T20:16:42;3.10;;;2.80;;
55316;SDS011;41178;48.956;8.130;2023-05-07T20:21:44;4.07;;;3.27;;
55316;SDS011;41178;48.956;8.130;2023-05-07T20:26:46;5.03;;;3.47;;
55316;SDS011;41178;48.956;8.130;2023-05-07T20:31:47;4.83;;;3.27;;
55316;SDS011;41178;48.956;8.130;2023-05-07T20:36:49;4.03;;;3.63;;
55316;SDS011;41178;48.956;8.130;2023-05-07T20:41:51;5.00;;;4.20;;
55316;SDS011;41178;48.956;8.130;2023-05-07T20:46:53;4.43;;;4.03;;
55316;SDS011;41178;48.956;8.130;2023-05-07T20:51:55;4.87;;;3.80;;
55316;SDS011;41178;48.956;8.130;2023-05-07T20:56:57;4.67;;;3.77;;
55316;SDS011;41178;48.956;8.130;2023-05-07T21:02:00;7.53;;;4.10;;
55316;SDS011;41178;48.956;8.130;2023-05-07T21:07:02;6.83;;;4.03;;
55316;SDS011;41178;48.956;8.130;2023-05-07T21:12:04;4.70;;;4.30;;
55316;SDS011;41178;48.956;8.130;2023-05-07T21:17:06;5.17;;;4.30;;
55316;SDS011;41178;48.956;8.130;2023-05-07T21:22:08;5.23;;;4.50;;
55316;SDS011;41178;48.956;8.130;2023-05-07T21:27:10;6.20;;;4.23;;
55316;SDS011;41178;48.956;8.130;2023-05-07T21:32:11;4.30;;;3.90;;
55316;SDS011;41178;48.956;8.130;2023-05-07T21:37:13;4.50;;;4.00;;
55316;SDS011;41178;48.956;8.130;2023-05-07T21:42:15;4.83;;;4.03;;
55316;SDS011;41178;48.956;8.130;2023-05-07T21:47:17;5.53;;;5.00;;
55316;SDS011;41178;48.956;8.130;2023-05-07T21:52:19;5.67;;;4.33;;
55316;SDS011;41178;48.956;8.130;2023-05-07T21:57:26;7.87;;;5.07;;
55316;SDS011;41178;48.956;8.130;2023-05-07T22:02:27;6.50;;;5.20;;
55316;SDS011;41178;48.956;8.130;2023-05-07T22:07:29;6.73;;;5.00;;
55316;SDS011;41178;48.956;8.130;2023-05-07T22:12:32;6.10;;;4.93;;
55316;SDS011;41178;48.956;8.130;2023-05-07T22:17:33;6.00;;;5.40;;
55316;SDS011;41178;48.956;8.130;2023-05-07T22:22:48;7.93;;;6.33;;
55316;SDS011;41178;48.956;8.130;2023-05-07T22:27:53;7.20;;;6.17;;
55316;SDS011;41178;48.956;8.130;2023-05-07T22:32:54;9.90;;;6.60;;
55316;SDS011;41178;48.956;8.130;2023-05-07T22:37:56;7.33;;;6.63;;
55316;SDS011;41178;48.956;8.130;2023-05-07T22:42:58;8.60;;;6.93;;
55316;SDS011;41178;48.956;8.130;2023-05-07T22:48:00;9.20;;;6.87;;
55316;SDS011;41178;48.956;8.130;2023-05-07T22:53:01;9.80;;;7.00;;
55316;SDS011;41178;48.956;8.130;2023-05-07T22:58:03;9.13;;;7.57;;
55316;SDS011;41178;48.956;8.130;2023-05-07T23:03:05;9.40;;;7.60;;
55316;SDS011;41178;48.956;8.130;2023-05-07T23:08:08;8.60;;;7.67;;
55316;SDS011;41178;48.956;8.130;2023-05-07T23:13:09;9.03;;;8.13;;
55316;SDS011;41178;48.956;8.130;2023-05-07T23:18:17;10.10;;;6.83;;
55316;SDS011;41178;48.956;8.130;2023-05-07T23:23:19;8.63;;;7.30;;
55316;SDS011;41178;48.956;8.130;2023-05-07T23:28:21;9.63;;;7.93;;
55316;SDS011;41178;48.956;8.130;2023-05-07T23:33:23;9.93;;;9.00;;
55316;SDS011;41178;48.956;8.130;2023-05-07T23:38:24;11.07;;;9.00;;
55316;SDS011;41178;48.956;8.130;2023-05-07T23:43:26;11.17;;;9.40;;
55316;SDS011;41178;48.956;8.130;2023-05-07T23:48:27;12.83;;;9.80;;
55316;SDS011;41178;48.956;8.130;2023-05-07T23:53:29;14.90;;;11.20;;
55316;SDS011;41178;48.956;8.130;2023-05-07T23:58:30;16.63;;;12.07;;
